sensor_id;sensor_type;location;lat;lon;timestamp;P1;durP1;ratioP1;P2;durP2;ratioP2
2390;SDS011;22957;50.824;4.360;2023-05-02T00:01:44;39.47;;;19.67;;
2390;SDS011;22957;50.824;4.360;2023-05-02T00:04:09;30.03;;;18.80;;
2390;SDS011;22957;50.824;4.360;2023-05-02T00:06:35;34.70;;;18.87;;
2390;SDS011;22957;50.824;4.360;2023-05-02T00:09:01;39.30;;;19.17;;
2390;SDS011;22957;50.824;4.360;2023-05-02T00:11:27;34.30;;;18.97;;
2390;SDS011;22957;50.824;4.360;2023-05-02T00:13:53;36.80;;;18.83;;
2390;SDS011;22957;50.824;4.360;2023-05-02T00:16:19;35.90;;;21.70;;
2390;SDS011;22957;50.824;4.360;2023-05-02T00:18:44;32.40;;;18.77;;
2390;SDS011;22957;50.824;4.360;2023-05-02T00:21:10;39.77;;;19.00;;
2390;SDS011;22957;50.824;4.360;2023-05-02T00:23:35;37.00;;;19.10;;
2390;SDS011;22957;50.824;4.360;2023-05-02T00:26:01;30.63;;;18.77;;
2390;SDS011;22957;50.824;4.360;2023-05-02T00:28:26;32.73;;;19.70;;
2390;SDS011;22957;50.824;4.360;2023-05-02T00:30:52;29.87;;;17.97;;
2390;SDS011;22957;50.824;4.360;2023-05-02T00:33:17;35.40;;;20.37;;
2390;SDS011;22957;50.824;4.360;2023-05-02T00:35:43;39.50;;;21.90;;
2390;SDS011;22957;50.824;4.360;2023-05-02T00:38:09;39.53;;;22.20;;
2390;SDS011;22957;50.824;4.360;2023-05-02T00:40:44;44.07;;;21.50;;
2390;SDS011;22957;50.824;4.360;2023-05-02T00:43:12;41.60;;;23.30;;
2390;SDS011;22957;50.824;4.360;2023-05-02T00:45:38;37.70;;;21.20;;
2390;SDS011;22957;50.824;4.360;2023-05-02T00:48:06;33.67;;;20.27;;
2390;SDS011;22957;50.824;4.360;2023-05-02T00:50:33;42.07;;;25.17;;
2390;SDS011;22957;50.824;4.360;2023-05-02T00:53:04;41.13;;;21.57;;
2390;SDS011;22957;50.824;4.360;2023-05-02T00:55:31;39.03;;;22.70;;
2390;SDS011;22957;50.824;4.360;2023-05-02T00:58:01;41.60;;;23.23;;
2390;SDS011;22957;50.824;4.360;2023-05-02T01:03:19;38.93;;;24.60;;
2390;SDS011;22957;50.824;4.360;2023-05-02T01:06:32;38.80;;;23.20;;
2390;SDS011;22957;50.824;4.360;2023-05-02T01:12:04;42.13;;;23.57;;
2390;SDS011;22957;50.824;4.360;2023-05-02T01:14:45;48.47;;;27.67;;
2390;SDS011;22957;50.824;4.360;2023-05-02T01:17:14;42.17;;;24.03;;
2390;SDS011;22957;50.824;4.360;2023-05-02T01:19:44;45.50;;;26.43;;
2390;SDS011;22957;50.824;4.360;2023-05-02T01:22:15;38.30;;;22.50;;
2390;SDS011;22957;50.824;4.360;2023-05-02T01:24:49;53.03;;;28.07;;
2390;SDS011;22957;50.824;4.360;2023-05-02T01:27:42;51.83;;;27.93;;
2390;SDS011;22957;50.824;4.360;2023-05-02T01:30:39;39.57;;;24.37;;
2390;SDS011;22957;50.824;4.360;2023-05-02T01:33:08;39.83;;;24.93;;
2390;SDS011;22957;50.824;4.360;2023-05-02T01:35:35;43.90;;;25.63;;
2390;SDS011;22957;50.824;4.360;2023-05-02T01:38:02;45.13;;;27.80;;
2390;SDS011;22957;50.824;4.360;2023-05-02T01:40:31;41.50;;;23.63;;
2390;SDS011;22957;50.824;4.360;2023-05-02T01:42:58;42.10;;;25.40;;
2390;SDS011;22957;50.824;4.360;2023-05-02T01:45:28;44.73;;;26.10;;
2390;SDS011;22957;50.824;4.360;2023-05-02T01:47:55;36.20;;;23.13;;
2390;SDS011;22957;50.824;4.360;2023-05-02T01:50:23;39.30;;;21.97;;
2390;SDS011;22957;50.824;4.360;2023-05-02T01:52:50;39.37;;;24.53;;
2390;SDS011;22957;50.824;4.360;2023-05-02T01:55:17;38.73;;;23.27;;
2390;SDS011;22957;50.824;4.360;2023-05-02T01:57:44;37.10;;;22.40;;
2390;SDS011;22957;50.824;4.360;2023-05-02T02:00:12;38.10;;;23.40;;
2390;SDS011;22957;50.824;4.360;2023-05-02T02:02:40;34.33;;;20.47;;
2390;SDS011;22957;50.824;4.360;2023-05-02T02:05:07;33.63;;;21.93;;
2390;SDS011;22957;50.824;4.360;2023-05-02T02:07:34;31.10;;;18.40;;
2390;SDS011;22957;50.824;4.360;2023-05-02T02:10:00;32.43;;;19.70;;
2390;SDS011;22957;50.824;4.360;2023-05-02T02:12:30;38.10;;;24.10;;
2390;SDS011;22957;50.824;4.360;2023-05-02T02:15:04;36.90;;;20.60;;
2390;SDS011;22957;50.824;4.360;2023-05-02T02:17:38;35.80;;;19.87;;
2390;SDS011;22957;50.824;4.360;2023-05-02T02:20:07;33.50;;;19.20;;
2390;SDS011;22957;50.824;4.360;2023-05-02T02:22:36;35.23;;;22.30;;
2390;SDS011;22957;50.824;4.360;2023-05-02T02:25:04;34.47;;;22.00;;
2390;SDS011;22957;50.824;4.360;2023-05-02T02:27:31;35.50;;;21.97;;
2390;SDS011;22957;50.824;4.360;2023-05-02T02:29:57;40.60;;;26.10;;
2390;SDS011;22957;50.824;4.360;2023-05-02T02:32:23;45.63;;;25.37;;
2390;SDS011;22957;50.824;4.360;2023-05-02T02:34:49;36.67;;;23.00;;
2390;SDS011;22957;50.824;4.360;2023-05-02T02:37:18;40.97;;;22.00;;
2390;SDS011;22957;50.824;4.360;2023-05-02T02:42:32;36.40;;;22.07;;
2390;SDS011;22957;50.824;4.360;2023-05-02T02:47:41;32.00;;;22.00;;
2390;SDS011;22957;50.824;4.360;2023-05-02T02:50:22;32.13;;;20.50;;
2390;SDS011;22957;50.824;4.360;2023-05-02T02:52:57;30.10;;;19.10;;
2390;SDS011;22957;50.824;4.360;2023-05-02T02:55:37;32.17;;;19.43;;
2390;SDS011;22957;50.824;4.360;2023-05-02T03:00:58;37.10;;;21.00;;
2390;SDS011;22957;50.824;4.360;2023-05-02T03:03:28;29.30;;;17.63;;
2390;SDS011;22957;50.824;4.360;2023-05-02T03:05:56;30.20;;;19.90;;
2390;SDS011;22957;50.824;4.360;2023-05-02T03:08:23;29.43;;;19.03;;
2390;SDS011;22957;50.824;4.360;2023-05-02T03:10:48;32.40;;;20.20;;
2390;SDS011;22957;50.824;4.360;2023-05-02T03:13:14;30.50;;;17.97;;
2390;SDS011;22957;50.824;4.360;2023-05-02T03:18:13;35.93;;;22.47;;
2390;SDS011;22957;50.824;4.360;2023-05-02T03:20:39;31.77;;;20.30;;
2390;SDS011;22957;50.824;4.360;2023-05-02T03:23:05;43.77;;;24.67;;
2390;SDS011;22957;50.824;4.360;2023-05-02T03:25:31;32.13;;;19.40;;
2390;SDS011;22957;50.824;4.360;2023-05-02T03:27:57;29.13;;;18.17;;
2390;SDS011;22957;50.824;4.360;2023-05-02T03:30:22;30.73;;;20.60;;
2390;SDS011;22957;50.824;4.360;2023-05-02T03:32:48;34.43;;;20.77;;
2390;SDS011;22957;50.824;4.360;2023-05-02T03:35:13;29.90;;;17.70;;
2390;SDS011;22957;50.824;4.360;2023-05-02T03:37:39;32.70;;;19.77;;
2390;SDS011;22957;50.824;4.360;2023-05-02T03:40:05;32.47;;;19.50;;
2390;SDS011;22957;50.824;4.360;2023-05-02T03:42:35;27.93;;;15.67;;
2390;SDS011;22957;50.824;4.360;2023-05-02T03:45:05;26.80;;;17.10;;
2390;SDS011;22957;50.824;4.360;2023-05-02T03:47:31;28.30;;;18.17;;
2390;SDS011;22957;50.824;4.360;2023-05-02T03:49:57;32.30;;;20.20;;
2390;SDS011;22957;50.824;4.360;2023-05-02T03:52:23;27.07;;;16.70;;
2390;SDS011;22957;50.824;4.360;2023-05-02T03:54:49;32.33;;;18.97;;
2390;SDS011;22957;50.824;4.360;2023-05-02T03:57:15;31.17;;;19.80;;
2390;SDS011;22957;50.824;4.360;2023-05-02T03:59:41;32.50;;;19.87;;
2390;SDS011;22957;50.824;4.360;2023-05-02T04:02:09;31.73;;;19.60;;
2390;SDS011;22957;50.824;4.360;2023-05-02T04:04:35;33.50;;;19.57;;
2390;SDS011;22957;50.824;4.360;2023-05-02T04:07:02;38.90;;;20.03;;
2390;SDS011;22957;50.824;4.360;2023-05-02T04:09:29;44.00;;;24.43;;
2390;SDS011;22957;50.824;4.360;2023-05-02T04:11:55;35.10;;;21.17;;
2390;SDS011;22957;50.824;4.360;2023-05-02T04:14:20;36.73;;;21.90;;
2390;SDS011;22957;50.824;4.360;2023-05-02T04:16:46;40.97;;;24.67;;
2390;SDS011;22957;50.824;4.360;2023-05-02T04:19:16;40.87;;;24.10;;
2390;SDS011;22957;50.824;4.360;2023-05-02T04:21:42;42.50;;;23.97;;
2390;SDS011;22957;50.824;4.360;2023-05-02T04:24:09;32.27;;;19.57;;
2390;SDS011;22957;50.824;4.360;2023-05-02T04:26:35;38.67;;;20.70;;
2390;SDS011;22957;50.824;4.360;2023-05-02T04:29:01;45.83;;;26.87;;
2390;SDS011;22957;50.824;4.360;2023-05-02T04:31:28;35.87;;;20.20;;
2390;SDS011;22957;50.824;4.360;2023-05-02T04:33:55;31.57;;;18.70;;
2390;SDS011;22957;50.824;4.360;2023-05-02T04:36:20;46.80;;;26.13;;
2390;SDS011;22957;50.824;4.360;2023-05-02T04:38:46;30.27;;;19.90;;
2390;SDS011;22957;50.824;4.360;2023-05-02T04:41:11;37.90;;;22.17;;
2390;SDS011;22957;50.824;4.360;2023-05-02T04:43:38;36.10;;;19.03;;
2390;SDS011;22957;50.824;4.360;2023-05-02T04:46:04;44.00;;;22.83;;
2390;SDS011;22957;50.824;4.360;2023-05-02T04:48:30;36.03;;;22.53;;
2390;SDS011;22957;50.824;4.360;2023-05-02T04:50:55;31.07;;;18.83;;
2390;SDS011;22957;50.824;4.360;2023-05-02T04:53:21;33.93;;;20.00;;
2390;SDS011;22957;50.824;4.360;2023-05-02T04:55:47;37.57;;;20.83;;
2390;SDS011;22957;50.824;4.360;2023-05-02T04:58:13;36.40;;;20.60;;
2390;SDS011;22957;50.824;4.360;2023-05-02T05:00:39;38.37;;;23.17;;
2390;SDS011;22957;50.824;4.360;2023-05-02T05:03:05;38.23;;;21.00;;
2390;SDS011;22957;50.824;4.360;2023-05-02T05:05:31;38.87;;;23.47;;
2390;SDS011;22957;50.824;4.360;2023-05-02T05:07:56;48.40;;;23.83;;
2390;SDS011;22957;50.824;4.360;2023-05-02T05:10:22;34.37;;;21.80;;
2390;SDS011;22957;50.824;4.360;2023-05-02T05:12:48;44.40;;;25.93;;
2390;SDS011;22957;50.824;4.360;2023-05-02T05:15:14;35.40;;;23.30;;
2390;SDS011;22957;50.824;4.360;2023-05-02T05:17:40;37.10;;;22.83;;
2390;SDS011;22957;50.824;4.360;2023-05-02T05:20:06;37.27;;;22.53;;
2390;SDS011;22957;50.824;4.360;2023-05-02T05:22:39;40.47;;;25.13;;
2390;SDS011;22957;50.824;4.360;2023-05-02T05:25:08;39.63;;;22.90;;
2390;SDS011;22957;50.824;4.360;2023-05-02T05:27:34;36.40;;;22.53;;
2390;SDS011;22957;50.824;4.360;2023-05-02T05:30:00;32.43;;;20.60;;
2390;SDS011;22957;50.824;4.360;2023-05-02T05:32:27;40.30;;;22.73;;
2390;SDS011;22957;50.824;4.360;2023-05-02T05:34:53;35.73;;;22.03;;
2390;SDS011;22957;50.824;4.360;2023-05-02T05:37:19;31.17;;;19.23;;
2390;SDS011;22957;50.824;4.360;2023-05-02T05:39:45;37.93;;;19.77;;
2390;SDS011;22957;50.824;4.360;2023-05-02T05:42:11;30.30;;;18.73;;
2390;SDS011;22957;50.824;4.360;2023-05-02T05:44:37;34.97;;;19.60;;
2390;SDS011;22957;50.824;4.360;2023-05-02T05:47:03;29.93;;;18.07;;
2390;SDS011;22957;50.824;4.360;2023-05-02T05:49:29;29.23;;;17.80;;
2390;SDS011;22957;50.824;4.360;2023-05-02T05:51:54;29.33;;;18.80;;
2390;SDS011;22957;50.824;4.360;2023-05-02T05:54:20;34.53;;;18.37;;
2390;SDS011;22957;50.824;4.360;2023-05-02T05:56:46;33.07;;;19.43;;
2390;SDS011;22957;50.824;4.360;2023-05-02T05:59:12;29.90;;;18.80;;
2390;SDS011;22957;50.824;4.360;2023-05-02T06:01:38;30.87;;;19.00;;
2390;SDS011;22957;50.824;4.360;2023-05-02T06:04:04;31.57;;;19.40;;
2390;SDS011;22957;50.824;4.360;2023-05-02T06:06:30;27.70;;;18.83;;
2390;SDS011;22957;50.824;4.360;2023-05-02T06:08:56;27.90;;;17.73;;
2390;SDS011;22957;50.824;4.360;2023-05-02T06:11:22;31.00;;;18.87;;
2390;SDS011;22957;50.824;4.360;2023-05-02T06:13:50;30.40;;;17.43;;
2390;SDS011;22957;50.824;4.360;2023-05-02T06:16:17;35.90;;;20.97;;
2390;SDS011;22957;50.824;4.360;2023-05-02T06:18:43;36.93;;;19.70;;
2390;SDS011;22957;50.824;4.360;2023-05-02T06:21:09;30.27;;;20.80;;
2390;SDS011;22957;50.824;4.360;2023-05-02T06:23:35;31.47;;;20.17;;
2390;SDS011;22957;50.824;4.360;2023-05-02T06:26:01;33.67;;;19.90;;
2390;SDS011;22957;50.824;4.360;2023-05-02T06:28:28;31.80;;;21.47;;
2390;SDS011;22957;50.824;4.360;2023-05-02T06:31:01;36.90;;;21.37;;
2390;SDS011;22957;50.824;4.360;2023-05-02T06:33:29;37.03;;;22.93;;
2390;SDS011;22957;50.824;4.360;2023-05-02T06:35:55;35.73;;;21.00;;
2390;SDS011;22957;50.824;4.360;2023-05-02T06:38:21;35.53;;;21.23;;
2390;SDS011;22957;50.824;4.360;2023-05-02T06:40:47;35.40;;;22.90;;
2390;SDS011;22957;50.824;4.360;2023-05-02T06:43:13;34.10;;;21.17;;
2390;SDS011;22957;50.824;4.360;2023-05-02T06:45:39;34.17;;;20.43;;
2390;SDS011;22957;50.824;4.360;2023-05-02T06:48:05;41.40;;;22.23;;
2390;SDS011;22957;50.824;4.360;2023-05-02T06:50:32;32.73;;;22.17;;
2390;SDS011;22957;50.824;4.360;2023-05-02T06:52:58;39.53;;;23.40;;
2390;SDS011;22957;50.824;4.360;2023-05-02T06:55:24;30.93;;;21.90;;
2390;SDS011;22957;50.824;4.360;2023-05-02T06:57:50;34.13;;;20.77;;
2390;SDS011;22957;50.824;4.360;2023-05-02T07:00:16;33.80;;;23.40;;
2390;SDS011;22957;50.824;4.360;2023-05-02T07:02:43;31.53;;;22.77;;
2390;SDS011;22957;50.824;4.360;2023-05-02T07:05:09;35.70;;;21.83;;
2390;SDS011;22957;50.824;4.360;2023-05-02T07:07:35;31.87;;;23.33;;
2390;SDS011;22957;50.824;4.360;2023-05-02T07:10:01;32.77;;;22.50;;
2390;SDS011;22957;50.824;4.360;2023-05-02T07:12:27;31.57;;;22.70;;
2390;SDS011;22957;50.824;4.360;2023-05-02T07:14:53;31.30;;;22.70;;
2390;SDS011;22957;50.824;4.360;2023-05-02T07:17:19;33.43;;;23.23;;
2390;SDS011;22957;50.824;4.360;2023-05-02T07:19:45;35.10;;;22.40;;
2390;SDS011;22957;50.824;4.360;2023-05-02T07:22:11;35.33;;;25.77;;
2390;SDS011;22957;50.824;4.360;2023-05-02T07:24:39;36.93;;;25.33;;
2390;SDS011;22957;50.824;4.360;2023-05-02T07:27:07;28.07;;;21.90;;
2390;SDS011;22957;50.824;4.360;2023-05-02T07:29:33;33.20;;;22.57;;
2390;SDS011;22957;50.824;4.360;2023-05-02T07:31:59;29.03;;;18.93;;
2390;SDS011;22957;50.824;4.360;2023-05-02T07:34:24;26.87;;;19.57;;
2390;SDS011;22957;50.824;4.360;2023-05-02T07:36:50;27.40;;;22.10;;
2390;SDS011;22957;50.824;4.360;2023-05-02T07:39:16;27.00;;;20.30;;
2390;SDS011;22957;50.824;4.360;2023-05-02T07:41:41;42.57;;;22.73;;
2390;SDS011;22957;50.824;4.360;2023-05-02T07:44:07;31.00;;;22.07;;
2390;SDS011;22957;50.824;4.360;2023-05-02T07:46:33;26.30;;;19.97;;
2390;SDS011;22957;50.824;4.360;2023-05-02T07:48:58;27.23;;;19.87;;
2390;SDS011;22957;50.824;4.360;2023-05-02T07:51:24;24.10;;;17.13;;
2390;SDS011;22957;50.824;4.360;2023-05-02T07:53:50;28.70;;;21.27;;
2390;SDS011;22957;50.824;4.360;2023-05-02T07:56:23;29.33;;;20.73;;
2390;SDS011;22957;50.824;4.360;2023-05-02T07:58:49;29.10;;;20.97;;
2390;SDS011;22957;50.824;4.360;2023-05-02T08:01:17;24.80;;;17.73;;
2390;SDS011;22957;50.824;4.360;2023-05-02T08:03:43;23.23;;;17.83;;
2390;SDS011;22957;50.824;4.360;2023-05-02T08:06:09;26.37;;;18.47;;
2390;SDS011;22957;50.824;4.360;2023-05-02T08:08:35;23.17;;;16.67;;
2390;SDS011;22957;50.824;4.360;2023-05-02T08:11:01;22.53;;;16.93;;
2390;SDS011;22957;50.824;4.360;2023-05-02T08:13:27;27.20;;;19.83;;
2390;SDS011;22957;50.824;4.360;2023-05-02T08:15:53;30.30;;;19.27;;
2390;SDS011;22957;50.824;4.360;2023-05-02T08:18:25;24.20;;;18.20;;
2390;SDS011;22957;50.824;4.360;2023-05-02T08:20:52;21.33;;;15.80;;
2390;SDS011;22957;50.824;4.360;2023-05-02T08:23:20;17.90;;;13.10;;
2390;SDS011;22957;50.824;4.360;2023-05-02T08:25:45;17.00;;;10.93;;
2390;SDS011;22957;50.824;4.360;2023-05-02T08:28:11;18.47;;;12.00;;
2390;SDS011;22957;50.824;4.360;2023-05-02T08:30:37;14.93;;;10.07;;
2390;SDS011;22957;50.824;4.360;2023-05-02T08:33:02;14.20;;;10.10;;
2390;SDS011;22957;50.824;4.360;2023-05-02T08:35:28;14.53;;;9.00;;
2390;SDS011;22957;50.824;4.360;2023-05-02T08:37:54;14.10;;;8.20;;
2390;SDS011;22957;50.824;4.360;2023-05-02T08:40:20;11.83;;;6.90;;
2390;SDS011;22957;50.824;4.360;2023-05-02T08:42:46;12.47;;;8.33;;
2390;SDS011;22957;50.824;4.360;2023-05-02T08:45:12;11.87;;;7.27;;
2390;SDS011;22957;50.824;4.360;2023-05-02T08:47:39;10.37;;;7.53;;
2390;SDS011;22957;50.824;4.360;2023-05-02T08:50:06;10.80;;;6.60;;
2390;SDS011;22957;50.824;4.360;2023-05-02T08:52:36;10.87;;;6.70;;
2390;SDS011;22957;50.824;4.360;2023-05-02T08:55:03;9.40;;;6.23;;
2390;SDS011;22957;50.824;4.360;2023-05-02T08:57:30;10.33;;;6.10;;
2390;SDS011;22957;50.824;4.360;2023-05-02T08:59:56;10.50;;;6.00;;
2390;SDS011;22957;50.824;4.360;2023-05-02T09:02:27;6.20;;;5.57;;
2390;SDS011;22957;50.824;4.360;2023-05-02T09:05:21;6.80;;;4.57;;
2390;SDS011;22957;50.824;4.360;2023-05-02T09:07:49;7.97;;;5.57;;
2390;SDS011;22957;50.824;4.360;2023-05-02T09:10:15;6.83;;;4.23;;
2390;SDS011;22957;50.824;4.360;2023-05-02T09:12:41;5.43;;;3.70;;
2390;SDS011;22957;50.824;4.360;2023-05-02T09:15:08;10.57;;;3.80;;
2390;SDS011;22957;50.824;4.360;2023-05-02T09:17:41;7.77;;;3.90;;
2390;SDS011;22957;50.824;4.360;2023-05-02T09:20:11;10.60;;;4.07;;
2390;SDS011;22957;50.824;4.360;2023-05-02T09:22:38;7.00;;;3.50;;
2390;SDS011;22957;50.824;4.360;2023-05-02T09:25:12;6.47;;;4.10;;
2390;SDS011;22957;50.824;4.360;2023-05-02T09:27:54;9.40;;;3.87;;
2390;SDS011;22957;50.824;4.360;2023-05-02T09:32:47;10.70;;;4.00;;
2390;SDS011;22957;50.824;4.360;2023-05-02T09:35:17;9.90;;;5.00;;
2390;SDS011;22957;50.824;4.360;2023-05-02T09:37:49;7.80;;;4.37;;
2390;SDS011;22957;50.824;4.360;2023-05-02T09:40:15;9.60;;;3.67;;
2390;SDS011;22957;50.824;4.360;2023-05-02T09:42:41;10.90;;;3.57;;
2390;SDS011;22957;50.824;4.360;2023-05-02T09:45:07;8.57;;;3.87;;
2390;SDS011;22957;50.824;4.360;2023-05-02T09:47:33;11.87;;;4.10;;
2390;SDS011;22957;50.824;4.360;2023-05-02T09:50:00;5.60;;;3.87;;
2390;SDS011;22957;50.824;4.360;2023-05-02T09:52:27;6.87;;;4.47;;
2390;SDS011;22957;50.824;4.360;2023-05-02T09:54:53;5.33;;;3.40;;
2390;SDS011;22957;50.824;4.360;2023-05-02T09:57:20;8.80;;;4.33;;
2390;SDS011;22957;50.824;4.360;2023-05-02T09:59:54;7.17;;;3.50;;
2390;SDS011;22957;50.824;4.360;2023-05-02T10:02:20;6.97;;;4.00;;
2390;SDS011;22957;50.824;4.360;2023-05-02T10:04:47;7.87;;;4.20;;
2390;SDS011;22957;50.824;4.360;2023-05-02T10:07:13;10.63;;;4.53;;
2390;SDS011;22957;50.824;4.360;2023-05-02T10:09:42;7.57;;;4.20;;
2390;SDS011;22957;50.824;4.360;2023-05-02T10:12:09;9.70;;;5.17;;
2390;SDS011;22957;50.824;4.360;2023-05-02T10:14:39;8.00;;;4.40;;
2390;SDS011;22957;50.824;4.360;2023-05-02T10:17:11;18.00;;;4.40;;
2390;SDS011;22957;50.824;4.360;2023-05-02T10:22:24;11.40;;;4.80;;
2390;SDS011;22957;50.824;4.360;2023-05-02T10:24:51;17.90;;;4.23;;
2390;SDS011;22957;50.824;4.360;2023-05-02T10:27:17;12.20;;;4.50;;
2390;SDS011;22957;50.824;4.360;2023-05-02T10:29:43;12.80;;;3.70;;
2390;SDS011;22957;50.824;4.360;2023-05-02T10:32:10;8.07;;;3.60;;
2390;SDS011;22957;50.824;4.360;2023-05-02T10:34:37;10.93;;;3.30;;
2390;SDS011;22957;50.824;4.360;2023-05-02T10:37:04;8.70;;;3.60;;
2390;SDS011;22957;50.824;4.360;2023-05-02T10:39:30;7.47;;;4.30;;
2390;SDS011;22957;50.824;4.360;2023-05-02T10:41:57;8.57;;;3.60;;
2390;SDS011;22957;50.824;4.360;2023-05-02T10:44:33;11.13;;;6.57;;
2390;SDS011;22957;50.824;4.360;2023-05-02T10:46:59;10.00;;;4.43;;
2390;SDS011;22957;50.824;4.360;2023-05-02T10:49:25;7.70;;;4.23;;
2390;SDS011;22957;50.824;4.360;2023-05-02T10:51:51;10.97;;;4.63;;
2390;SDS011;22957;50.824;4.360;2023-05-02T10:54:23;11.80;;;4.00;;
2390;SDS011;22957;50.824;4.360;2023-05-02T11:05:06;6.77;;;4.23;;
2390;SDS011;22957;50.824;4.360;2023-05-02T11:07:35;10.13;;;4.20;;
2390;SDS011;22957;50.824;4.360;2023-05-02T11:12:43;12.00;;;5.13;;
2390;SDS011;22957;50.824;4.360;2023-05-02T11:15:10;14.83;;;5.80;;
2390;SDS011;22957;50.824;4.360;2023-05-02T11:20:31;10.10;;;4.57;;
2390;SDS011;22957;50.824;4.360;2023-05-02T11:22:58;9.70;;;4.90;;
2390;SDS011;22957;50.824;4.360;2023-05-02T11:25:49;9.67;;;5.20;;
2390;SDS011;22957;50.824;4.360;2023-05-02T11:31:00;8.00;;;4.70;;
2390;SDS011;22957;50.824;4.360;2023-05-02T11:33:29;14.30;;;4.20;;
2390;SDS011;22957;50.824;4.360;2023-05-02T11:35:55;8.53;;;4.13;;
2390;SDS011;22957;50.824;4.360;2023-05-02T11:38:22;8.27;;;5.27;;
2390;SDS011;22957;50.824;4.360;2023-05-02T11:40:52;6.40;;;5.10;;
2390;SDS011;22957;50.824;4.360;2023-05-02T11:43:23;13.00;;;5.60;;
2390;SDS011;22957;50.824;4.360;2023-05-02T11:45:50;10.83;;;5.07;;
2390;SDS011;22957;50.824;4.360;2023-05-02T11:48:17;10.70;;;4.93;;
2390;SDS011;22957;50.824;4.360;2023-05-02T11:50:44;13.20;;;4.03;;
2390;SDS011;22957;50.824;4.360;2023-05-02T11:53:15;9.00;;;4.03;;
2390;SDS011;22957;50.824;4.360;2023-05-02T11:55:43;6.30;;;3.83;;
2390;SDS011;22957;50.824;4.360;2023-05-02T11:58:14;8.80;;;3.83;;
2390;SDS011;22957;50.824;4.360;2023-05-02T12:00:41;8.37;;;3.97;;
2390;SDS011;22957;50.824;4.360;2023-05-02T12:03:18;9.53;;;4.00;;
2390;SDS011;22957;50.824;4.360;2023-05-02T12:06:07;10.20;;;3.50;;
2390;SDS011;22957;50.824;4.360;2023-05-02T12:08:36;5.07;;;3.20;;
2390;SDS011;22957;50.824;4.360;2023-05-02T12:11:02;11.23;;;5.80;;
2390;SDS011;22957;50.824;4.360;2023-05-02T12:13:27;16.43;;;5.53;;
2390;SDS011;22957;50.824;4.360;2023-05-02T12:15:54;11.00;;;4.30;;
2390;SDS011;22957;50.824;4.360;2023-05-02T12:18:21;10.00;;;4.30;;
2390;SDS011;22957;50.824;4.360;2023-05-02T12:20:48;15.67;;;3.93;;
2390;SDS011;22957;50.824;4.360;2023-05-02T12:23:19;6.77;;;3.57;;
2390;SDS011;22957;50.824;4.360;2023-05-02T12:25:46;9.23;;;4.17;;
2390;SDS011;22957;50.824;4.360;2023-05-02T12:28:12;8.47;;;3.07;;
2390;SDS011;22957;50.824;4.360;2023-05-02T12:30:38;6.63;;;3.77;;
2390;SDS011;22957;50.824;4.360;2023-05-02T12:33:05;9.17;;;4.10;;
2390;SDS011;22957;50.824;4.360;2023-05-02T12:35:32;5.80;;;4.00;;
2390;SDS011;22957;50.824;4.360;2023-05-02T12:38:17;8.00;;;3.70;;
2390;SDS011;22957;50.824;4.360;2023-05-02T12:40:47;6.00;;;3.43;;
2390;SDS011;22957;50.824;4.360;2023-05-02T12:43:17;6.33;;;3.77;;
2390;SDS011;22957;50.824;4.360;2023-05-02T12:45:43;14.83;;;3.30;;
2390;SDS011;22957;50.824;4.360;2023-05-02T12:48:43;11.07;;;3.70;;
2390;SDS011;22957;50.824;4.360;2023-05-02T12:51:01;10.93;;;3.90;;
2390;SDS011;22957;50.824;4.360;2023-05-02T12:53:40;10.03;;;3.80;;
2390;SDS011;22957;50.824;4.360;2023-05-02T12:56:07;5.37;;;3.60;;
2390;SDS011;22957;50.824;4.360;2023-05-02T12:58:41;5.50;;;3.17;;
2390;SDS011;22957;50.824;4.360;2023-05-02T13:01:08;7.03;;;3.60;;
2390;SDS011;22957;50.824;4.360;2023-05-02T13:03:34;9.97;;;3.60;;
2390;SDS011;22957;50.824;4.360;2023-05-02T13:06:00;6.00;;;3.70;;
2390;SDS011;22957;50.824;4.360;2023-05-02T13:08:26;5.77;;;3.40;;
2390;SDS011;22957;50.824;4.360;2023-05-02T13:10:52;6.90;;;2.87;;
2390;SDS011;22957;50.824;4.360;2023-05-02T13:13:17;5.53;;;2.60;;
2390;SDS011;22957;50.824;4.360;2023-05-02T13:15:43;6.43;;;3.10;;
2390;SDS011;22957;50.824;4.360;2023-05-02T13:18:09;9.00;;;3.17;;
2390;SDS011;22957;50.824;4.360;2023-05-02T13:20:34;7.27;;;2.90;;
2390;SDS011;22957;50.824;4.360;2023-05-02T13:23:00;7.10;;;2.87;;
2390;SDS011;22957;50.824;4.360;2023-05-02T13:25:26;9.53;;;2.80;;
2390;SDS011;22957;50.824;4.360;2023-05-02T13:27:52;5.00;;;2.30;;
2390;SDS011;22957;50.824;4.360;2023-05-02T13:30:17;9.70;;;2.83;;
2390;SDS011;22957;50.824;4.360;2023-05-02T13:32:43;6.90;;;4.20;;
2390;SDS011;22957;50.824;4.360;2023-05-02T13:35:09;7.10;;;2.93;;
2390;SDS011;22957;50.824;4.360;2023-05-02T13:37:37;5.87;;;3.30;;
2390;SDS011;22957;50.824;4.360;2023-05-02T13:40:04;7.20;;;2.80;;
2390;SDS011;22957;50.824;4.360;2023-05-02T13:42:30;5.70;;;2.70;;
2390;SDS011;22957;50.824;4.360;2023-05-02T13:44:56;8.40;;;3.10;;
2390;SDS011;22957;50.824;4.360;2023-05-02T13:47:21;5.67;;;2.97;;
2390;SDS011;22957;50.824;4.360;2023-05-02T13:49:47;7.90;;;2.60;;
2390;SDS011;22957;50.824;4.360;2023-05-02T13:52:13;8.77;;;2.80;;
2390;SDS011;22957;50.824;4.360;2023-05-02T13:54:38;7.13;;;2.60;;
2390;SDS011;22957;50.824;4.360;2023-05-02T13:57:04;7.90;;;2.67;;
2390;SDS011;22957;50.824;4.360;2023-05-02T13:59:30;5.80;;;3.00;;
2390;SDS011;22957;50.824;4.360;2023-05-02T14:01:56;7.70;;;3.17;;
2390;SDS011;22957;50.824;4.360;2023-05-02T14:04:21;9.20;;;3.73;;
2390;SDS011;22957;50.824;4.360;2023-05-02T14:06:47;8.83;;;3.97;;
2390;SDS011;22957;50.824;4.360;2023-05-02T14:09:12;7.27;;;3.00;;
2390;SDS011;22957;50.824;4.360;2023-05-02T14:11:39;7.20;;;3.03;;
2390;SDS011;22957;50.824;4.360;2023-05-02T14:14:05;8.47;;;3.57;;
2390;SDS011;22957;50.824;4.360;2023-05-02T14:16:31;8.80;;;3.10;;
2390;SDS011;22957;50.824;4.360;2023-05-02T14:18:59;4.83;;;3.10;;
2390;SDS011;22957;50.824;4.360;2023-05-02T14:21:24;9.43;;;3.07;;
2390;SDS011;22957;50.824;4.360;2023-05-02T14:23:50;7.70;;;3.70;;
2390;SDS011;22957;50.824;4.360;2023-05-02T14:26:15;5.80;;;3.50;;
2390;SDS011;22957;50.824;4.360;2023-05-02T14:28:41;11.93;;;3.00;;
2390;SDS011;22957;50.824;4.360;2023-05-02T14:31:06;5.10;;;2.40;;
2390;SDS011;22957;50.824;4.360;2023-05-02T14:33:32;9.00;;;3.23;;
2390;SDS011;22957;50.824;4.360;2023-05-02T14:35:57;4.73;;;2.90;;
2390;SDS011;22957;50.824;4.360;2023-05-02T14:38:23;5.60;;;3.20;;
2390;SDS011;22957;50.824;4.360;2023-05-02T14:40:48;6.00;;;3.57;;
2390;SDS011;22957;50.824;4.360;2023-05-02T14:43:14;4.83;;;3.03;;
2390;SDS011;22957;50.824;4.360;2023-05-02T14:45:40;9.73;;;3.00;;
2390;SDS011;22957;50.824;4.360;2023-05-02T14:48:05;3.97;;;2.30;;
2390;SDS011;22957;50.824;4.360;2023-05-02T14:50:32;9.33;;;3.00;;
2390;SDS011;22957;50.824;4.360;2023-05-02T14:52:57;4.70;;;2.70;;
2390;SDS011;22957;50.824;4.360;2023-05-02T14:55:23;6.90;;;2.60;;
2390;SDS011;22957;50.824;4.360;2023-05-02T14:57:48;6.40;;;3.73;;
2390;SDS011;22957;50.824;4.360;2023-05-02T15:00:14;6.33;;;2.77;;
2390;SDS011;22957;50.824;4.360;2023-05-02T15:02:40;5.77;;;2.80;;
2390;SDS011;22957;50.824;4.360;2023-05-02T15:05:06;9.20;;;2.97;;
2390;SDS011;22957;50.824;4.360;2023-05-02T15:07:35;8.87;;;3.00;;
2390;SDS011;22957;50.824;4.360;2023-05-02T15:10:02;8.53;;;3.37;;
2390;SDS011;22957;50.824;4.360;2023-05-02T15:12:28;8.50;;;3.20;;
2390;SDS011;22957;50.824;4.360;2023-05-02T15:14:53;6.20;;;3.73;;
2390;SDS011;22957;50.824;4.360;2023-05-02T15:17:19;8.63;;;3.63;;
2390;SDS011;22957;50.824;4.360;2023-05-02T15:19:45;6.83;;;3.23;;
2390;SDS011;22957;50.824;4.360;2023-05-02T15:22:11;7.13;;;2.40;;
2390;SDS011;22957;50.824;4.360;2023-05-02T15:24:36;10.60;;;4.07;;
2390;SDS011;22957;50.824;4.360;2023-05-02T15:27:02;4.80;;;3.40;;